createdAt,value
2018-06-09T00:01:16.173Z,17.60
2018-06-09T00:03:43.444Z,17.50
2018-06-09T00:08:38.012Z,17.50
2018-06-09T00:11:05.292Z,17.50
2018-06-09T00:15:59.976Z,17.50
2018-06-09T00:20:54.535Z,17.40
2018-06-09T00:23:21.821Z,17.40
2018-06-09T00:25:49.100Z,17.40
2018-06-09T00:28:16.376Z,17.20
2018-06-09T00:30:43.620Z,17.20
2018-06-09T00:35:38.228Z,17.00
2018-06-09T00:38:05.500Z,17.00
2018-06-09T00:40:32.786Z,17.00
2018-06-09T00:45:27.344Z,16.90
2018-06-09T00:47:54.640Z,16.80
2018-06-09T00:50:21.931Z,16.70
2018-06-09T00:52:49.216Z,16.70
2018-06-09T00:55:16.495Z,16.70
2018-06-09T00:57:43.808Z,16.60
2018-06-09T01:00:11.096Z,16.50
2018-06-09T01:02:38.372Z,16.50
2018-06-09T01:07:32.913Z,16.40
2018-06-09T01:12:27.489Z,16.30
2018-06-09T01:14:54.819Z,16.30
2018-06-09T01:17:22.090Z,16.30
2018-06-09T01:19:49.353Z,16.20
2018-06-09T01:22:16.624Z,16.20
2018-06-09T01:24:43.914Z,16.20
2018-06-09T01:27:11.200Z,16.20
2018-06-09T01:29:38.433Z,16.10
2018-06-09T01:32:05.641Z,16.10
2018-06-09T01:34:32.864Z,16.10
2018-06-09T01:37:00.081Z,16.10
2018-06-09T01:39:27.280Z,16.10
2018-06-09T01:41:54.467Z,16.10
2018-06-09T01:44:21.685Z,16.10
2018-06-09T01:46:48.901Z,16.00
2018-06-09T01:49:16.100Z,16.00
2018-06-09T01:51:43.285Z,15.90
2018-06-09T01:54:10.600Z,15.90
2018-06-09T01:56:37.841Z,15.80
2018-06-09T01:59:05.056Z,15.80
2018-06-09T02:01:32.280Z,15.70
2018-06-09T02:03:59.465Z,15.80
2018-06-09T02:06:26.670Z,15.70
2018-06-09T02:11:21.093Z,15.70
2018-06-09T02:16:15.532Z,15.60
2018-06-09T02:18:42.730Z,15.50
2018-06-09T02:21:09.916Z,15.40
2018-06-09T02:23:37.138Z,15.40
2018-06-09T02:26:04.328Z,15.40
2018-06-09T02:28:31.545Z,15.40
2018-06-09T02:33:25.968Z,15.30
2018-06-09T02:35:53.201Z,15.30
2018-06-09T02:38:20.436Z,15.30
2018-06-09T02:40:47.616Z,15.30
2018-06-09T02:43:14.824Z,15.30
2018-06-09T02:45:42.056Z,15.30
2018-06-09T02:48:09.253Z,15.30
2018-06-09T02:53:03.722Z,15.20
2018-06-09T02:55:30.913Z,15.20
2018-06-09T02:57:58.149Z,15.10
2018-06-09T03:00:25.336Z,15.10
2018-06-09T03:02:52.525Z,15.00
2018-06-09T03:05:19.732Z,15.00
2018-06-09T03:07:46.958Z,15.00
2018-06-09T03:10:14.175Z,15.00
2018-06-09T03:12:41.383Z,15.00
2018-06-09T03:15:08.565Z,15.00
2018-06-09T03:20:03.033Z,15.00
2018-06-09T03:22:30.242Z,15.10
2018-06-09T03:24:57.469Z,15.10
2018-06-09T03:27:24.709Z,15.20
2018-06-09T03:29:51.888Z,15.20
2018-06-09T03:32:19.200Z,15.30
2018-06-09T03:34:46.473Z,15.30
2018-06-09T03:37:13.853Z,15.40
2018-06-09T03:39:41.117Z,15.50
2018-06-09T03:44:35.670Z,15.60
2018-06-09T03:47:02.977Z,15.70
2018-06-09T03:49:30.248Z,15.70
2018-06-09T03:51:57.496Z,15.70
2018-06-09T03:54:24.812Z,15.80
2018-06-09T03:56:52.053Z,15.80
2018-06-09T03:59:19.320Z,15.90
2018-06-09T04:01:46.577Z,15.90
2018-06-09T04:04:13.848Z,16.00
2018-06-09T04:06:41.128Z,16.00
2018-06-09T04:09:08.457Z,16.10
2018-06-09T04:11:35.868Z,16.20
2018-06-09T04:14:03.204Z,16.20
2018-06-09T04:16:30.563Z,16.30
2018-06-09T04:18:57.817Z,16.40
2018-06-09T04:21:25.065Z,16.50
2018-06-09T04:23:52.312Z,16.50
2018-06-09T04:26:19.569Z,16.50
2018-06-09T04:28:46.788Z,16.60
2018-06-09T04:31:14.159Z,16.70
2018-06-09T04:33:41.359Z,16.70
2018-06-09T04:38:35.788Z,16.80
2018-06-09T04:41:03.004Z,16.90
2018-06-09T04:43:30.221Z,17.00
2018-06-09T04:48:24.679Z,17.00
2018-06-09T04:50:51.869Z,17.00
2018-06-09T04:53:19.094Z,17.00
2018-06-09T04:55:46.305Z,17.00
2018-06-09T04:58:13.561Z,17.10
2018-06-09T05:00:40.786Z,17.20
2018-06-09T05:03:07.991Z,17.30
2018-06-09T05:05:35.240Z,17.30
2018-06-09T05:08:02.433Z,17.30
2018-06-09T05:10:29.660Z,17.30
2018-06-09T05:12:57.062Z,17.40
2018-06-09T05:15:24.281Z,17.50
2018-06-09T05:17:51.499Z,17.60
2018-06-09T05:20:18.696Z,17.70
2018-06-09T05:22:45.988Z,17.80
2018-06-09T05:25:13.217Z,17.80
2018-06-09T05:30:07.652Z,18.10
2018-06-09T05:32:34.877Z,18.30
2018-06-09T05:35:02.093Z,18.40
2018-06-09T05:37:29.313Z,18.50
2018-06-09T05:39:56.556Z,18.60
2018-06-09T05:42:23.747Z,18.80
2018-06-09T05:44:50.948Z,18.90
2018-06-09T05:47:18.141Z,18.90
2018-06-09T05:49:45.357Z,19.10
2018-06-09T05:52:12.548Z,19.20
2018-06-09T05:54:39.756Z,19.20
2018-06-09T05:57:06.966Z,19.40
2018-06-09T05:59:34.172Z,19.40
2018-06-09T06:02:01.401Z,19.40
2018-06-09T06:04:28.589Z,19.30
2018-06-09T06:06:55.764Z,19.40
2018-06-09T06:09:22.993Z,19.40
2018-06-09T06:11:50.197Z,19.50
2018-06-09T06:14:17.409Z,19.60
2018-06-09T06:19:11.905Z,19.70
2018-06-09T06:21:39.113Z,19.60
2018-06-09T06:24:06.317Z,19.70
2018-06-09T06:26:33.524Z,19.90
2018-06-09T06:29:00.729Z,20.00
2018-06-09T06:31:27.973Z,20.00
2018-06-09T06:33:55.241Z,20.00
2018-06-09T06:36:22.497Z,20.10
2018-06-09T06:38:49.768Z,20.10
2018-06-09T06:43:44.272Z,20.30
2018-06-09T06:46:11.532Z,20.50
2018-06-09T06:48:38.808Z,20.60
2018-06-09T06:51:06.076Z,20.70
2018-06-09T06:53:33.341Z,20.70
2018-06-09T06:56:00.576Z,20.90
2018-06-09T06:58:27.846Z,20.90
2018-06-09T07:00:55.084Z,21.10
2018-06-09T07:03:22.344Z,21.20
2018-06-09T07:05:49.614Z,21.30
2018-06-09T07:08:16.912Z,21.30
2018-06-09T07:10:44.172Z,21.30
2018-06-09T07:13:11.444Z,21.50
2018-06-09T07:15:38.716Z,21.70
2018-06-09T07:18:06.030Z,21.70
2018-06-09T07:20:33.288Z,21.90
2018-06-09T07:23:00.616Z,21.70
2018-06-09T07:25:27.874Z,21.90
2018-06-09T07:27:55.183Z,22.00
2018-06-09T07:30:22.410Z,22.10
2018-06-09T07:32:49.628Z,22.10
2018-06-09T07:35:16.894Z,22.20
2018-06-09T07:37:44.086Z,22.30
2018-06-09T07:40:11.305Z,22.50
2018-06-09T07:42:38.525Z,22.70
2018-06-09T07:45:05.721Z,22.90
2018-06-09T07:50:00.144Z,23.10
2018-06-09T07:54:54.563Z,23.20
2018-06-09T07:57:21.777Z,23.30
2018-06-09T07:59:49.040Z,23.30
2018-06-09T08:02:16.356Z,23.30
2018-06-09T08:04:43.592Z,23.50
2018-06-09T08:07:10.881Z,23.50
2018-06-09T08:09:38.121Z,23.50
2018-06-09T08:12:05.413Z,23.70
2018-06-09T08:14:32.652Z,23.80
2018-06-09T08:16:59.932Z,24.00
2018-06-09T08:19:27.221Z,24.10
2018-06-09T08:21:54.456Z,24.10
2018-06-09T08:24:21.748Z,24.00
2018-06-09T08:26:48.938Z,24.10
2018-06-09T08:29:16.140Z,24.30
2018-06-09T08:31:43.348Z,24.30
2018-06-09T08:36:37.926Z,24.50
2018-06-09T08:39:06.129Z,24.70
2018-06-09T08:41:33.373Z,24.70
2018-06-09T08:44:00.679Z,24.80
2018-06-09T08:46:27.916Z,24.90
2018-06-09T08:48:55.169Z,24.90
2018-06-09T08:51:22.456Z,25.10
2018-06-09T08:53:49.742Z,25.10
2018-06-09T08:56:17.013Z,25.10
2018-06-09T08:58:44.288Z,25.10
2018-06-09T09:01:11.549Z,25.10
2018-06-09T09:03:38.808Z,25.20
2018-06-09T09:06:06.068Z,25.20
2018-06-09T09:08:33.502Z,25.40
2018-06-09T09:11:00.767Z,25.30
2018-06-09T09:13:28.049Z,25.10
2018-06-09T09:15:55.312Z,25.30
2018-06-09T09:18:22.569Z,25.50
2018-06-09T09:20:49.837Z,25.40
2018-06-09T09:23:17.190Z,25.60
2018-06-09T09:25:44.465Z,25.40
2018-06-09T09:28:11.749Z,25.60
2018-06-09T09:30:39.123Z,25.60
2018-06-09T09:33:06.377Z,25.60
2018-06-09T09:35:33.605Z,25.80
2018-06-09T09:38:00.808Z,26.00
2018-06-09T09:40:27.996Z,26.10
2018-06-09T09:42:55.180Z,26.00
2018-06-09T09:47:49.600Z,26.30
2018-06-09T09:50:16.775Z,26.30
2018-06-09T09:55:11.176Z,26.50
2018-06-09T09:57:49.824Z,26.50
2018-06-09T10:00:27.457Z,26.60
2018-06-09T10:02:55.493Z,26.50
2018-06-09T10:05:23.012Z,26.40
2018-06-09T10:07:50.234Z,26.50
2018-06-09T10:10:17.449Z,26.70
2018-06-09T10:12:44.638Z,26.80
2018-06-09T10:15:11.828Z,26.80
2018-06-09T10:17:39.048Z,26.80
2018-06-09T10:20:06.293Z,26.80
2018-06-09T10:22:33.485Z,27.10
2018-06-09T10:25:00.692Z,27.10
2018-06-09T10:27:27.872Z,27.20
2018-06-09T10:29:55.059Z,27.40
2018-06-09T10:32:22.278Z,27.40
2018-06-09T10:34:49.486Z,27.40
2018-06-09T10:37:16.711Z,27.40
2018-06-09T10:39:43.888Z,27.50
2018-06-09T10:42:11.120Z,27.70
2018-06-09T10:44:38.328Z,28.00
2018-06-09T10:47:05.572Z,28.00
2018-06-09T10:49:32.745Z,28.00
2018-06-09T10:51:59.953Z,28.00
2018-06-09T10:54:27.156Z,28.10
2018-06-09T10:56:54.334Z,28.20
2018-06-09T10:59:21.565Z,28.20
2018-06-09T11:01:48.801Z,28.20
2018-06-09T11:04:15.985Z,28.10
2018-06-09T11:06:43.192Z,28.00
2018-06-09T11:09:10.372Z,27.90
2018-06-09T11:14:04.844Z,28.30
2018-06-09T11:16:32.040Z,28.70
2018-06-09T11:18:59.357Z,28.50
2018-06-09T11:21:26.549Z,28.50
2018-06-09T11:23:53.772Z,28.70
2018-06-09T11:26:21.033Z,28.50
2018-06-09T11:28:48.248Z,28.60
2018-06-09T11:31:15.469Z,28.70
2018-06-09T11:33:42.784Z,28.90
2018-06-09T11:36:10.041Z,29.10
2018-06-09T11:38:37.312Z,29.00
2018-06-09T11:41:04.697Z,28.80
2018-06-09T11:43:31.969Z,29.20
2018-06-09T11:45:59.200Z,29.10
2018-06-09T11:48:26.468Z,29.10
2018-06-09T11:50:53.737Z,29.30
2018-06-09T11:53:21.013Z,29.40
2018-06-09T11:55:48.296Z,29.90
2018-06-09T11:58:15.532Z,30.00
2018-06-09T12:00:42.781Z,30.30
2018-06-09T12:03:10.053Z,30.40
2018-06-09T12:05:37.333Z,30.20
2018-06-09T12:08:04.624Z,30.20
2018-06-09T12:10:31.885Z,29.90
2018-06-09T12:12:59.185Z,30.40
2018-06-09T12:15:26.433Z,30.60
2018-06-09T12:20:21.016Z,30.80
2018-06-09T12:22:48.301Z,31.20
2018-06-09T12:25:15.560Z,31.50
2018-06-09T12:27:42.828Z,31.00
2018-06-09T12:30:10.055Z,30.50
2018-06-09T12:32:37.316Z,30.20
2018-06-09T12:35:04.584Z,30.30
2018-06-09T12:37:31.769Z,30.20
2018-06-09T12:39:58.993Z,30.40
2018-06-09T12:42:26.180Z,30.90
2018-06-09T12:44:53.409Z,31.50
2018-06-09T12:47:20.661Z,31.80
2018-06-09T12:49:47.932Z,32.50
2018-06-09T12:52:15.121Z,32.40
2018-06-09T12:54:42.308Z,32.40
2018-06-09T12:57:09.566Z,32.50
2018-06-09T12:59:36.740Z,31.60
2018-06-09T13:02:03.988Z,31.30
2018-06-09T13:04:31.237Z,30.90
2018-06-09T13:06:58.449Z,31.00
2018-06-09T13:09:25.658Z,30.80
2018-06-09T13:11:52.865Z,30.40
2018-06-09T13:14:20.054Z,29.90
2018-06-09T13:16:47.291Z,29.70
2018-06-09T13:19:14.485Z,29.30
2018-06-09T13:21:41.698Z,28.80
2018-06-09T13:24:08.878Z,28.30
2018-06-09T13:26:36.108Z,27.80
2018-06-09T13:31:30.540Z,26.90
2018-06-09T13:33:57.749Z,26.60
2018-06-09T13:36:24.981Z,26.40
2018-06-09T13:38:52.196Z,26.20
2018-06-09T13:41:19.488Z,26.00
2018-06-09T13:43:46.789Z,25.90
2018-06-09T13:46:14.006Z,26.00
2018-06-09T13:48:41.256Z,25.80
2018-06-09T13:51:08.449Z,25.80
2018-06-09T13:53:35.660Z,25.60
2018-06-09T13:56:02.981Z,25.60
2018-06-09T13:58:30.237Z,25.50
2018-06-09T14:00:57.605Z,25.50
2018-06-09T14:03:24.893Z,25.50
2018-06-09T14:08:19.380Z,25.40
2018-06-09T14:10:46.677Z,25.20
2018-06-09T14:13:13.938Z,25.10
2018-06-09T14:15:41.205Z,25.00
2018-06-09T14:18:08.451Z,24.90
2018-06-09T14:20:35.745Z,24.90
2018-06-09T14:23:03.012Z,24.50
2018-06-09T14:25:30.283Z,24.50
2018-06-09T14:30:24.950Z,24.50
2018-06-09T14:32:52.218Z,24.60
2018-06-09T14:35:19.568Z,24.50
2018-06-09T14:37:46.818Z,24.50
2018-06-09T14:42:41.297Z,24.50
2018-06-09T14:45:08.562Z,24.50
2018-06-09T14:47:35.789Z,24.50
2018-06-09T14:50:03.316Z,24.60
2018-06-09T14:52:30.537Z,24.60
2018-06-09T14:54:57.748Z,24.90
2018-06-09T14:57:24.954Z,25.20
2018-06-09T14:59:52.156Z,25.50
2018-06-09T15:02:19.368Z,25.60
2018-06-09T15:04:46.572Z,25.60
2018-06-09T15:07:13.813Z,25.50
2018-06-09T15:09:41.092Z,25.40
2018-06-09T15:12:08.289Z,25.40
2018-06-09T15:14:35.517Z,25.20
2018-06-09T15:17:02.777Z,25.50
2018-06-09T15:19:30.020Z,25.50
2018-06-09T15:21:57.231Z,25.60
2018-06-09T15:24:24.428Z,25.90
2018-06-09T15:26:51.649Z,25.90
2018-06-09T15:29:18.829Z,26.00
2018-06-09T15:31:46.015Z,26.00
2018-06-09T15:34:13.221Z,26.20
2018-06-09T15:36:40.528Z,26.20
2018-06-09T15:39:07.764Z,26.10
2018-06-09T15:41:34.968Z,26.10
2018-06-09T15:44:02.285Z,26.30
2018-06-09T15:46:29.491Z,26.10
2018-06-09T15:48:56.696Z,26.10
2018-06-09T15:53:51.116Z,25.80
2018-06-09T15:56:18.357Z,25.80
2018-06-09T15:58:45.560Z,25.60
2018-06-09T16:03:40.137Z,25.20
2018-06-09T16:06:07.400Z,24.90
2018-06-09T16:08:34.790Z,24.70
2018-06-09T16:11:01.968Z,24.60
2018-06-09T16:15:59.837Z,24.50
2018-06-09T16:18:27.271Z,24.50
2018-06-09T16:20:54.630Z,24.40
2018-06-09T16:23:21.962Z,24.20
2018-06-09T16:25:49.278Z,24.00
2018-06-09T16:30:44.364Z,23.60
2018-06-09T16:33:11.675Z,23.50
2018-06-09T16:35:38.947Z,23.40
2018-06-09T16:40:34.856Z,23.30
2018-06-09T16:43:02.216Z,23.30
2018-06-09T16:45:29.609Z,23.30
2018-06-09T16:47:57.373Z,23.40
2018-06-09T16:55:19.585Z,23.30
2018-06-09T16:57:46.845Z,23.20
2018-06-09T17:00:14.057Z,23.10
2018-06-09T17:05:08.626Z,23.00
2018-06-09T17:07:35.941Z,22.90
2018-06-09T17:10:04.333Z,22.80
2018-06-09T17:12:32.713Z,22.60
2018-06-09T17:15:00.117Z,22.50
2018-06-09T17:19:54.809Z,22.40
2018-06-09T17:22:22.171Z,22.30
2018-06-09T17:24:49.607Z,22.30
2018-06-09T17:27:17.038Z,22.40
2018-06-09T17:29:44.346Z,22.40
2018-06-09T17:32:11.706Z,22.50
2018-06-09T17:34:39.012Z,22.50
2018-06-09T17:37:06.293Z,22.50
2018-06-09T17:39:34.131Z,22.40
2018-06-09T17:42:01.522Z,22.50
2018-06-09T17:44:28.891Z,22.30
2018-06-09T17:46:56.250Z,22.30
2018-06-09T17:49:23.642Z,22.30
2018-06-09T17:51:51.066Z,22.20
2018-06-09T17:54:18.439Z,22.30
2018-06-09T17:56:45.779Z,22.30
2018-06-09T17:59:13.178Z,22.30
2018-06-09T18:01:40.724Z,22.30
2018-06-09T18:04:08.075Z,22.40
2018-06-09T18:09:05.183Z,22.40
2018-06-09T18:11:32.933Z,22.40
2018-06-09T18:14:00.401Z,22.30
2018-06-09T18:16:27.768Z,22.40
2018-06-09T18:18:55.137Z,22.40
2018-06-09T18:21:22.606Z,22.50
2018-06-09T18:23:49.949Z,22.40
2018-06-09T18:26:17.387Z,22.40
2018-06-09T18:28:44.768Z,22.40
2018-06-09T18:31:12.535Z,22.40
2018-06-09T18:33:39.936Z,22.40
2018-06-09T18:36:07.197Z,22.40
2018-06-09T18:38:34.968Z,22.40
2018-06-09T18:41:02.719Z,22.40
2018-06-09T18:43:30.170Z,22.40
2018-06-09T18:48:25.624Z,22.40
2018-06-09T18:50:53.035Z,22.30
2018-06-09T18:53:20.737Z,22.40
2018-06-09T18:55:48.386Z,22.30
2018-06-09T18:58:16.616Z,22.20
2018-06-09T19:00:44.066Z,22.20
2018-06-09T19:03:12.880Z,22.10
2018-06-09T19:05:40.262Z,22.00
2018-06-09T19:13:04.593Z,22.00
2018-06-09T19:15:34.503Z,22.00
2018-06-09T19:18:02.659Z,22.00
2018-06-09T19:20:30.145Z,22.00
2018-06-09T19:22:57.531Z,22.10
2018-06-09T19:25:25.333Z,22.10
2018-06-09T19:27:52.813Z,22.10
2018-06-09T19:30:20.253Z,22.10
2018-06-09T19:32:47.634Z,22.10
2018-06-09T19:35:15.018Z,22.00
2018-06-09T19:40:09.743Z,22.10
2018-06-09T19:42:37.004Z,22.10
2018-06-09T19:45:04.902Z,22.10
2018-06-09T19:47:32.834Z,22.00
2018-06-09T19:50:00.242Z,22.00
2018-06-09T19:52:27.638Z,21.90
2018-06-09T19:54:55.007Z,21.90
2018-06-09T19:57:22.545Z,21.90
2018-06-09T19:59:49.919Z,21.90
2018-06-09T20:02:17.286Z,21.90
2018-06-09T20:04:44.649Z,21.90
2018-06-09T20:07:11.976Z,21.90
2018-06-09T20:09:39.277Z,21.80
2018-06-09T20:12:06.644Z,21.90
2018-06-09T20:14:34.740Z,21.80
2018-06-09T20:17:02.993Z,21.80
2018-06-09T20:19:30.345Z,21.80
2018-06-09T20:21:57.714Z,21.80
2018-06-09T20:24:25.071Z,21.80
2018-06-09T20:26:52.453Z,21.80
2018-06-09T20:29:19.853Z,21.80
2018-06-09T20:31:47.210Z,21.70
2018-06-09T20:34:14.609Z,21.70
2018-06-09T20:36:41.924Z,21.70
2018-06-09T20:39:09.250Z,21.70
2018-06-09T20:44:04.237Z,21.60
2018-06-09T20:46:31.719Z,21.60
2018-06-09T20:48:59.038Z,21.60
2018-06-09T20:53:53.693Z,21.60
2018-06-09T20:56:21.005Z,21.60
2018-06-09T20:58:48.325Z,21.60
2018-06-09T21:01:15.704Z,21.60
2018-06-09T21:03:43.069Z,21.60
2018-06-09T21:06:10.389Z,21.50
2018-06-09T21:08:37.748Z,21.50
2018-06-09T21:11:05.098Z,21.50
2018-06-09T21:13:32.412Z,21.40
2018-06-09T21:20:54.438Z,21.20
2018-06-09T21:23:21.723Z,21.20
2018-06-09T21:25:48.998Z,21.10
2018-06-09T21:28:21.945Z,21.00
2018-06-09T21:30:59.945Z,21.00
2018-06-09T21:36:05.966Z,20.80
2018-06-09T21:38:38.113Z,20.60
2018-06-09T21:41:11.020Z,20.50
2018-06-09T21:43:44.217Z,20.40
2018-06-09T21:46:16.113Z,20.50
2018-06-09T21:48:43.375Z,20.50
2018-06-09T21:53:37.942Z,20.60
2018-06-09T21:56:05.221Z,20.60
2018-06-09T21:58:32.513Z,20.70
2018-06-09T22:00:59.811Z,20.70
2018-06-09T22:03:27.086Z,20.70
2018-06-09T22:05:54.373Z,20.80
2018-06-09T22:08:21.647Z,20.70
2018-06-09T22:10:48.960Z,20.70
2018-06-09T22:15:43.533Z,20.70
2018-06-09T22:18:10.830Z,20.70
2018-06-09T22:20:38.094Z,20.60
2018-06-09T22:23:05.401Z,20.50
2018-06-09T22:28:05.670Z,20.30
2018-06-09T22:30:32.929Z,20.30
2018-06-09T22:33:00.214Z,20.30
2018-06-09T22:35:27.488Z,20.20
2018-06-09T22:37:54.765Z,20.10
2018-06-09T22:40:21.994Z,20.10
2018-06-09T22:45:16.466Z,20.20
2018-06-09T22:47:43.681Z,20.30
2018-06-09T22:50:10.929Z,20.30
2018-06-09T22:52:38.186Z,20.40
2018-06-09T22:55:05.429Z,20.40
2018-06-09T22:57:32.794Z,20.40
2018-06-09T23:00:00.020Z,20.40
2018-06-09T23:02:27.264Z,20.40
2018-06-09T23:07:21.728Z,20.50
2018-06-09T23:09:48.941Z,20.50
2018-06-09T23:12:16.191Z,20.50
2018-06-09T23:14:43.434Z,20.50
2018-06-09T23:17:10.653Z,20.50
2018-06-09T23:19:37.913Z,20.50
2018-06-09T23:22:05.196Z,20.50
2018-06-09T23:26:59.697Z,20.50
2018-06-09T23:29:26.954Z,20.50
2018-06-09T23:31:54.182Z,20.50
2018-06-09T23:34:21.429Z,20.50
2018-06-09T23:36:48.645Z,20.40
2018-06-09T23:39:15.912Z,20.40
2018-06-09T23:41:43.129Z,20.40
2018-06-09T23:44:10.353Z,20.40
2018-06-09T23:46:37.624Z,20.40
2018-06-09T23:49:04.893Z,20.40
2018-06-09T23:51:32.110Z,20.40
2018-06-09T23:53:59.348Z,20.40
2018-06-09T23:56:26.588Z,20.40
2018-06-09T23:58:53.843Z,20.30
